Thunder radar more information blitzortung!


Radar de pluja more information rain snow radar


Visita la nostra xarxa de llocs de meteo:

Template documentation
and downloads

And another site



No particular awareness of the weather is required.    There are no Weather-warnings

Pagina Historial Weather Underground text

Diari Resum Juliol 26, 2017 Unitats:  Mètric    Imperial   Tant
« Previous Dia
SegĂźent Dia »
Diari Setmana Mensual Anual Personalitzada
  Maxima: Minima: Media:
Temperatura: -17.8 °C -8 °C -4.5 °C
Punt de rosada: -17.8 °C -12.4 °C -10.1 °C
Humitat: Humidity % 38 % 54 %
Wind Speed: 0 km/h 0 km/h 10 km/h
RĂ fegues de vent: 0 km/h - -
Vent:- - SSE
Pression baro: 0 hPa 34222.3 hPa -
Precipitacions: 0 mm    
Historical Graphs
 
 
Dades de taula per Juliol 26, 2017
Temps Temperatura Punt de rosada Pression baro Vent Wind Speed RĂ fegues de vent Humitat Rainfall Rate (Hourly)
-17.8 °C -17.8 °C 0 hPa Calm     Humidity % 0 mm
00:04 -5.4 °C -8.6 °C 34256.2 hPa NNE 6 km/h 6 km/h 70 % 0 mm
00:05 -6.9 °C -11.8 °C 34222.3 hPa NNE 7.7 km/h 7.7 km/h 57 % 0 mm
00:09 -5.4 °C -8.6 °C 34256.2 hPa NE 6 km/h 6 km/h 70 % 0 mm
00:14 -5.4 °C -8.5 °C 34256.2 hPa East 6 km/h 6 km/h 71 % 0 mm
00:15 -7.1 °C -12.1 °C 34222.3 hPa SW 2.6 km/h 5.1 km/h 56 % 0 mm
00:19 -5.4 °C -8.5 °C 34256.2 hPa NNE 7.6 km/h 7.6 km/h 71 % 0 mm
00:20 -5.4 °C -8.5 °C 34256.2 hPa NNE 6.3 km/h 6.3 km/h 71 % 0 mm
00:25 -5.5 °C -8.6 °C 34256.2 hPa NE 9 km/h 9 km/h 71 % 0 mm
00:30 -5.5 °C -8.6 °C 34256.2 hPa NE 11.9 km/h 11.9 km/h 71 % 0 mm
00:35 -5.6 °C -8.6 °C 34256.2 hPa NE 15.3 km/h 15.3 km/h 71 % 0 mm
00:40 -5.6 °C -8.6 °C 34256.2 hPa NNE 11.9 km/h 11.9 km/h 72 % 0 mm
00:45 -5.6 °C -8.6 °C 34256.2 hPa NNE 9 km/h 9 km/h 72 % 0 mm
00:50 -5.7 °C -8.6 °C 34256.2 hPa ENE 9 km/h 9 km/h 72 % 0 mm
00:55 -5.7 °C -8.7 °C 34256.2 hPa NNE 11.9 km/h 11.9 km/h 72 % 0 mm
01:05 -7.6 °C -12.2 °C 34293.4 hPa Calm   2.6 km/h 58 % 0 mm
01:15 -7.6 °C -12.3 °C 34293.4 hPa Calm     58 % 0 mm
01:25 -7.7 °C -12.3 °C 34256.2 hPa Calm   2.6 km/h 58 % 0 mm
01:35 -7.8 °C -12.3 °C 34256.2 hPa WSW 2.6 km/h 5.1 km/h 59 % 0 mm
01:45 -8 °C -12.4 °C 34256.2 hPa WSW 2.6 km/h 2.6 km/h 60 % 0 mm
01:55 -7.9 °C -12.3 °C 34293.4 hPa SW 2.6 km/h 5.1 km/h 60 % 0 mm
02:05 -8 °C -12.4 °C 34293.4 hPa Calm   2.6 km/h 60 % 0 mm
02:15 -7.9 °C -12.3 °C 34293.4 hPa SW 2.6 km/h 5.1 km/h 60 % 0 mm
02:25 -7.9 °C -12.3 °C 34293.4 hPa SW 5.1 km/h 5.1 km/h 60 % 0 mm
02:35 -7.9 °C -12.2 °C 34293.4 hPa SW 2.6 km/h 5.1 km/h 61 % 0 mm
02:45 -7.9 °C -12.2 °C 34293.4 hPa SW 2.6 km/h 2.6 km/h 61 % 0 mm
02:55 -7.7 °C -12 °C 34327.3 hPa SW 2.6 km/h 2.6 km/h 61 % 0 mm
03:05 -7.3 °C -11.7 °C 34327.3 hPa WSW 2.6 km/h 5.1 km/h 60 % 0 mm
03:15 -6.8 °C -11.6 °C 34327.3 hPa Calm   7.7 km/h 58 % 0 mm
03:25 -6.6 °C -11.6 °C 34293.4 hPa Calm   5.1 km/h 56 % 0 mm
03:35 -6.6 °C -11.6 °C 34327.3 hPa Calm   5.1 km/h 56 % 0 mm
03:45 -6.9 °C -11.9 °C 34327.3 hPa NE 5.1 km/h 7.7 km/h 56 % 0 mm
03:55 -6.8 °C -11.8 °C 34327.3 hPa ENE 5.1 km/h 7.7 km/h 56 % 0 mm
04:05 -6.9 °C -11.8 °C 34327.3 hPa NE 5.1 km/h 10.3 km/h 57 % 0 mm
04:15 -6.8 °C -11.8 °C 34327.3 hPa NNE 7.7 km/h 10.3 km/h 56 % 0 mm
04:25 -6.6 °C -11.7 °C 34327.3 hPa NE 5.1 km/h 12.9 km/h 55 % 0 mm
04:35 -6.4 °C -11.6 °C 34293.4 hPa ENE 5.1 km/h 5.1 km/h 55 % 0 mm
04:45 -6.2 °C -11.4 °C 34293.4 hPa SE 5.1 km/h 5.1 km/h 55 % 0 mm
04:55 -6.2 °C -11.6 °C 34327.3 hPa SSW 2.6 km/h 7.7 km/h 54 % 0 mm
05:05 -6 °C -11.4 °C 34327.3 hPa SSE 2.6 km/h 5.1 km/h 54 % 0 mm
05:15 -5.8 °C -11.3 °C 34327.3 hPa NNE 2.6 km/h 5.1 km/h 53 % 0 mm
05:25 -5.4 °C -11 °C 34327.3 hPa WNW 2.6 km/h 5.1 km/h 53 % 0 mm
05:35 -5.4 °C -11.2 °C 34327.3 hPa NE 2.6 km/h 10.3 km/h 52 % 0 mm
10:34 -5.4 °C -11.2 °C 34327.3 hPa NNE 3.1 km/h 8 km/h 52 % 0 mm
10:39 -5.1 °C -10.9 °C 34327.3 hPa North 9.3 km/h 9.3 km/h 52 % 0 mm
10:44 -5.3 °C -11.1 °C 34327.3 hPa NE 11.9 km/h 11.9 km/h 52 % 0 mm
10:49 -5.1 °C -10.8 °C 34327.3 hPa NNE 9 km/h 9 km/h 52 % 0 mm
10:54 -4.9 °C -11.1 °C 34327.3 hPa NNE 9 km/h 9 km/h 50 % 0 mm
10:59 -4.8 °C -10.9 °C 34327.3 hPa NW 6.8 km/h   50 % 0 mm
11:04 -4.7 °C -10.8 °C 34327.3 hPa East 9 km/h 9 km/h 50 % 0 mm
11:09 -4.8 °C -10.9 °C 34327.3 hPa NNE 14 km/h 14 km/h 50 % 0 mm
11:14 -5 °C -11.3 °C 34327.3 hPa SSE 9.3 km/h 9.3 km/h 49 % 0 mm
11:19 -4.7 °C -11.2 °C 34327.3 hPa South 11.1 km/h 11.1 km/h 48 % 0 mm
11:24 -4.2 °C -10.6 °C 34327.3 hPa SSE 11.9 km/h 11.9 km/h 49 % 0 mm
11:29 -4.1 °C -10.7 °C 34327.3 hPa South 9 km/h 9 km/h 48 % 0 mm
11:34 -3.9 °C -10.3 °C 34327.3 hPa NNE 11.9 km/h 11.9 km/h 49 % 0 mm
11:39 -3.8 °C -10.4 °C 34327.3 hPa NNW 9 km/h 9 km/h 48 % 0 mm
11:44 -3.4 °C -10.1 °C 34327.3 hPa SW 10.3 km/h 10.3 km/h 48 % 0 mm
11:49 -3.4 °C -9.9 °C 34327.3 hPa SSW 11.9 km/h 11.9 km/h 48 % 0 mm
11:54 -3.3 °C -10.1 °C 34327.3 hPa SW 9 km/h 9.8 km/h 47 % 0 mm
11:59 -3.2 °C -10 °C 34327.3 hPa SW 15 km/h 15 km/h 47 % 0 mm
12:04 -3.2 °C -10 °C 34293.4 hPa SW 20.9 km/h 20.9 km/h 47 % 0 mm
12:09 -3.2 °C -9.9 °C 34293.4 hPa WSW 20.9 km/h 20.9 km/h 47 % 0 mm
12:14 -3 °C -9.9 °C 34293.4 hPa SE 9 km/h 9 km/h 46 % 0 mm
12:19 -2.9 °C -9.7 °C 34293.4 hPa East 9.8 km/h 9.8 km/h 47 % 0 mm
12:24 -2.7 °C -9.9 °C 34293.4 hPa SW 11.9 km/h 11.9 km/h 45 % 0 mm
12:29 -2.5 °C -9.7 °C 34293.4 hPa SW 8 km/h 8 km/h 45 % 0 mm
12:34 -2.4 °C -9.9 °C 34293.4 hPa WSW 16.6 km/h 16.6 km/h 44 % 0 mm
12:39 -2.6 °C -10.2 °C 34293.4 hPa SSE 15 km/h 15 km/h 43 % 0 mm
12:44 -2.4 °C -10 °C 34293.4 hPa SSE 11.9 km/h 11.9 km/h 43 % 0 mm
12:49 -2.4 °C -10 °C 34293.4 hPa ESE 11.9 km/h 11.9 km/h 43 % 0 mm
12:54 -2.3 °C -10.2 °C 34293.4 hPa SSW 9.3 km/h 9.3 km/h 42 % 0 mm
12:59 -2.3 °C -9.9 °C 34293.4 hPa SSW 20.9 km/h 20.9 km/h 43 % 0 mm
13:04 -1.9 °C -9.6 °C 34256.2 hPa East 8 km/h 8 km/h 43 % 0 mm
13:05 -2.1 °C -9.9 °C 34256.2 hPa SSE 11.9 km/h 11.9 km/h 42 % 0 mm
13:10 -2.3 °C -10.4 °C 34256.2 hPa SE 12.2 km/h 12.2 km/h 41 % 0 mm
13:15 -2.4 °C -10.2 °C 34256.2 hPa SW 6 km/h 6 km/h 42 % 0 mm
13:20 -1.9 °C -9.8 °C 34256.2 hPa SW 17.9 km/h 17.9 km/h 42 % 0 mm
13:25 -1.9 °C -9.8 °C 34256.2 hPa SW 11.9 km/h 11.9 km/h 42 % 0 mm
13:30 -1.7 °C -9.9 °C 34256.2 hPa SSE 11.9 km/h 11.9 km/h 40 % 0 mm
13:37 -1.4 °C -10 °C 34256.2 hPa SSW 8 km/h 8 km/h 39 % 0 mm
13:42 -1.5 °C -10.1 °C 34256.2 hPa West 9 km/h 9 km/h 39 % 0 mm
13:47 -1.4 °C -9.8 °C 34256.2 hPa SW 22 km/h 22 km/h 40 % 0 mm
13:52 -1.6 °C -9.9 °C 34256.2 hPa WSW 15 km/h 15 km/h 40 % 0 mm
13:57 -1.7 °C -10.1 °C 34256.2 hPa SSW 17.9 km/h 17.9 km/h 40 % 0 mm
14:02 -1.4 °C -10 °C 34256.2 hPa SE 9 km/h 9 km/h 39 % 0 mm
14:07 -1.3 °C -9.6 °C 34256.2 hPa SSW 22.5 km/h 22.5 km/h 40 % 0 mm
14:08 -1.3 °C -9.6 °C 34256.2 hPa WSW 23.8 km/h 23.8 km/h 40 % 0 mm
14:13 -1.2 °C -9.8 °C 34256.2 hPa SSW 15 km/h 15 km/h 39 % 0 mm
14:18 -1.2 °C -9.8 °C 34256.2 hPa NNW 9 km/h 9 km/h 39 % 0 mm
14:19 -1.3 °C -9.8 °C 34256.2 hPa WNW 9 km/h 9 km/h 39 % 0 mm
14:24 -1.4 °C -9.9 °C 34256.2 hPa NNE 6 km/h 6.8 km/h 39 % 0 mm
14:29 -1.2 °C -9.9 °C 34256.2 hPa South 15 km/h 15 km/h 38 % 0 mm
14:34 -1.2 °C -9.6 °C 34256.2 hPa South 15 km/h 15 km/h 40 % 0 mm
14:39 -1.7 °C -9.8 °C 34256.2 hPa SW 23.8 km/h 23.8 km/h 41 % 0 mm
14:44 -2.4 °C -10 °C 34256.2 hPa SSE 20.9 km/h 20.9 km/h 43 % 0 mm
14:49 -2.6 °C -9.8 °C 34256.2 hPa ESE 20.9 km/h 20.9 km/h 45 % 0 mm
14:54 -2.5 °C -9.7 °C 34256.2 hPa SSE 20.9 km/h 20.9 km/h 45 % 0 mm
14:59 -2.4 °C -9.5 °C 34256.2 hPa SE 15 km/h 15.3 km/h 46 % 0 mm
15:04 -2.3 °C -9.3 °C 34256.2 hPa SSE 17.9 km/h 17.9 km/h 46 % 0 mm
15:09 -2.6 °C -9.4 °C 34256.2 hPa South 15 km/h 15 km/h 47 % 0 mm
15:19 -2.8 °C -9.5 °C 34256.2 hPa South 20.9 km/h 20.9 km/h 48 % 0 mm
15:24 -3.1 °C -9.6 °C 34256.2 hPa East 22.5 km/h 22.5 km/h 49 % 0 mm
15:25 -3.1 °C -9.6 °C 34256.2 hPa East 29.8 km/h 29.8 km/h 49 % 0 mm
15:30 -3.4 °C -9.6 °C 34256.2 hPa ESE 20.9 km/h 20.9 km/h 50 % 0 mm
15:35 -3.1 °C -9.3 °C 34256.2 hPa WSW 6.3 km/h 6.3 km/h 50 % 0 mm
15:40 -3.3 °C -9.3 °C 34256.2 hPa ESE 19.6 km/h 19.6 km/h 51 % 0 mm
15:45 -3.5 °C -9.6 °C 34256.2 hPa East 26.9 km/h 26.9 km/h 51 % 0 mm
15:50 -3.7 °C -9.6 °C 34256.2 hPa East 15 km/h 15 km/h 52 % 0 mm
15:55 -3.5 °C -9.4 °C 34256.2 hPa SW 20.9 km/h 20.9 km/h 52 % 0 mm
16:00 -3.4 °C -9.3 °C 34256.2 hPa East 9.3 km/h 9.3 km/h 52 % 0 mm
16:05 -3.2 °C -9.1 °C 34256.2 hPa SW 15 km/h 15 km/h 52 % 0 mm
16:10 -2.9 °C -9.1 °C 34256.2 hPa SSE 8 km/h 8.5 km/h 51 % 0 mm
16:15 -2.7 °C -8.9 °C 34256.2 hPa SW 15 km/h 15 km/h 50 % 0 mm
16:20 -2.1 °C -8.6 °C 34256.2 hPa SW 10.3 km/h 10.3 km/h 49 % 0 mm
16:25 -2.4 °C -8.9 °C 34256.2 hPa SSW 23.8 km/h 23.8 km/h 49 % 0 mm
16:26 -2.4 °C -8.9 °C 34256.2 hPa SW 23.8 km/h 23.8 km/h 49 % 0 mm
16:31 -2.4 °C -8.9 °C 34256.2 hPa SSE 15 km/h 15 km/h 49 % 0 mm
16:36 -2 °C -8.5 °C 34222.3 hPa SSW 11.9 km/h 11.9 km/h 49 % 0 mm
16:41 -1.7 °C -8.4 °C 34222.3 hPa SSE 9 km/h 9 km/h 48 % 0 mm
16:46 -1.6 °C -8.5 °C 34222.3 hPa WSW 9.3 km/h 9.3 km/h 47 % 0 mm
16:51 -1.5 °C -8.6 °C 34256.2 hPa West 15 km/h 15 km/h 46 % 0 mm
16:56 -1.2 °C -8.4 °C 34256.2 hPa SE 9 km/h 9 km/h 46 % 0 mm
17:01 -1.9 °C -8.8 °C 34256.2 hPa NW 23.8 km/h 23.8 km/h 47 % 0 mm
17:06 -1.8 °C -8.7 °C 34256.2 hPa South 11.9 km/h 11.9 km/h 47 % 0 mm
17:11 -2.3 °C -9.1 °C 34256.2 hPa NNE 15.3 km/h 15.3 km/h 47 % 0 mm
17:16 -2.2 °C -8.8 °C 34256.2 hPa SW 32.8 km/h 32.8 km/h 48 % 0 mm
17:21 -2.1 °C -8.8 °C 34256.2 hPa ESE 29.8 km/h 29.8 km/h 48 % 0 mm
17:26 -2.7 °C -9.2 °C 34256.2 hPa East 17.9 km/h 17.9 km/h 49 % 0 mm
17:31 -2.9 °C -9 °C 34256.2 hPa NNE 35.7 km/h 35.7 km/h 51 % 0 mm
17:36 -3.1 °C -9.2 °C 34256.2 hPa ESE 23.8 km/h 25.1 km/h 51 % 0 mm
17:41 -3.1 °C -9 °C 34256.2 hPa NNE 32.8 km/h 32.8 km/h 52 % 0 mm
17:46 -3.3 °C -9.2 °C 34256.2 hPa ESE 17.9 km/h 18.3 km/h 52 % 0 mm
17:51 -3.3 °C -9.2 °C 34256.2 hPa NNW 20.9 km/h 20.9 km/h 52 % 0 mm
17:56 -3.2 °C -8.9 °C 34256.2 hPa ESE 26.9 km/h 26.9 km/h 53 % 0 mm
18:01 -3.2 °C -8.9 °C 34256.2 hPa East 32.8 km/h 32.8 km/h 53 % 0 mm
18:06 -3.4 °C -9.1 °C 34256.2 hPa East 23.8 km/h 23.8 km/h 53 % 0 mm
18:11 -3.4 °C -9.1 °C 34256.2 hPa ENE 17.9 km/h 17.9 km/h 53 % 0 mm
18:16 -3.3 °C -9 °C 34256.2 hPa ESE 23.8 km/h 23.8 km/h 53 % 0 mm
18:21 -3.4 °C -9.2 °C 34256.2 hPa ESE 25.9 km/h 25.9 km/h 53 % 0 mm
18:26 -3.6 °C -9.3 °C 34256.2 hPa SE 22.5 km/h 22.5 km/h 53 % 0 mm
18:31 -3.5 °C -9.2 °C 34256.2 hPa ENE 23.8 km/h 23.8 km/h 53 % 0 mm
18:36 -3.5 °C -9.2 °C 34256.2 hPa NNE 16.6 km/h 16.6 km/h 53 % 0 mm
18:41 -3.4 °C -9.3 °C 34256.2 hPa ESE 15 km/h 15 km/h 52 % 0 mm
18:46 -3.5 °C -9.4 °C 34256.2 hPa ESE 20.9 km/h 20.9 km/h 52 % 0 mm
18:56 -3.4 °C -9.5 °C 34256.2 hPa ESE 17.9 km/h 17.9 km/h 51 % 0 mm
19:01 -3.6 °C -9.6 °C 34256.2 hPa ENE 15 km/h 15 km/h 51 % 0 mm
19:06 -3.7 °C -9.9 °C 34256.2 hPa East 17.9 km/h 17.9 km/h 50 % 0 mm
19:11 -3.6 °C -9.8 °C 34256.2 hPa ENE 15 km/h 15.3 km/h 50 % 0 mm
19:15 -5.8 °C -9.8 °C 34327.3 hPa Calm     63 % 0 mm
19:16 -3.6 °C -9.8 °C 34256.2 hPa SE 11.9 km/h 11.9 km/h 50 % 0 mm
19:21 -3.6 °C -9.8 °C 34222.3 hPa East 15 km/h 15 km/h 50 % 0 mm
19:25 -5.9 °C -9.9 °C 34327.3 hPa NE 2.6 km/h 2.6 km/h 64 % 0 mm
19:26 -3.7 °C -9.9 °C 34222.3 hPa ESE 20.3 km/h 20.3 km/h 50 % 0 mm
19:31 -3.7 °C -9.9 °C 34222.3 hPa ESE 15.3 km/h 15.3 km/h 50 % 0 mm
19:35 -6.1 °C -9.8 °C 34327.3 hPa Calm     65 % 0 mm
19:36 -3.7 °C -9.9 °C 34256.2 hPa East 20.9 km/h 20.9 km/h 50 % 0 mm
19:41 -3.8 °C -9.8 °C 34256.2 hPa ENE 23.8 km/h 23.8 km/h 51 % 0 mm
19:45 -6.1 °C -9.8 °C 34327.3 hPa Calm     65 % 0 mm
19:46 -3.8 °C -9.8 °C 34256.2 hPa ENE 15 km/h 15 km/h 51 % 0 mm
19:51 -3.9 °C -9.9 °C 34256.2 hPa ESE 26.9 km/h 26.9 km/h 51 % 0 mm
19:55 -6.1 °C -9.8 °C 34293.4 hPa Calm     66 % 0 mm
19:56 -3.9 °C -9.9 °C 34256.2 hPa ESE 15 km/h 15 km/h 51 % 0 mm
20:01 -3.9 °C -9.8 °C 34256.2 hPa East 15.6 km/h 15.6 km/h 52 % 0 mm
20:05 -6.2 °C -9.8 °C 34293.4 hPa Calm     66 % 0 mm
20:06 -4.1 °C -9.9 °C 34256.2 hPa ESE 23.8 km/h 23.8 km/h 52 % 0 mm
20:11 -4.1 °C -9.9 °C 34256.2 hPa East 14 km/h 14 km/h 52 % 0 mm
20:15 -6.2 °C -9.7 °C 34293.4 hPa Calm     67 % 0 mm
20:16 -4.1 °C -9.9 °C 34256.2 hPa ENE 15 km/h 15 km/h 52 % 0 mm
20:21 -4.1 °C -9.9 °C 34222.3 hPa ENE 15.6 km/h 15.6 km/h 52 % 0 mm
20:25 -6.2 °C -9.7 °C 34293.4 hPa Calm     67 % 0 mm
20:26 -4.2 °C -10 °C 34222.3 hPa ESE 15 km/h 15 km/h 52 % 0 mm
20:31 -4.2 °C -10.1 °C 34222.3 hPa ESE 15 km/h 15 km/h 52 % 0 mm
20:35 -6.2 °C -9.8 °C 34327.3 hPa Calm   5.1 km/h 67 % 0 mm
20:36 -4.2 °C -10.1 °C 34256.2 hPa East 9 km/h 9 km/h 52 % 0 mm
20:41 -4.3 °C -10.1 °C 34256.2 hPa ESE 11.9 km/h 11.9 km/h 52 % 0 mm
20:45 -6.2 °C -9.8 °C 34327.3 hPa Calm   5.1 km/h 67 % 0 mm
20:46 -4.3 °C -10.2 °C 34256.2 hPa SE 11.9 km/h 11.9 km/h 52 % 0 mm
20:51 -4.3 °C -10.2 °C 34256.2 hPa East 9 km/h 9 km/h 52 % 0 mm
20:55 -6.3 °C -9.8 °C 34327.3 hPa Calm     67 % 0 mm
20:56 -4.4 °C -10.2 °C 34256.2 hPa ENE 11.9 km/h 11.9 km/h 52 % 0 mm
21:01 -4.4 °C -10.2 °C 34256.2 hPa SE 9.8 km/h 9.8 km/h 52 % 0 mm
21:05 -6.4 °C -9.8 °C 34327.3 hPa Calm     68 % 0 mm
21:06 -4.4 °C -10.2 °C 34256.2 hPa Calm     52 % 0 mm
21:11 -4.5 °C -10.3 °C 34256.2 hPa WSW 6 km/h 6.8 km/h 52 % 0 mm
21:15 -6.6 °C -9.8 °C 34327.3 hPa Calm   5.1 km/h 69 % 0 mm
21:16 -4.5 °C -10.2 °C 34256.2 hPa SW 6.3 km/h 6.3 km/h 53 % 0 mm
21:21 -4.6 °C -10.2 °C 34256.2 hPa Calm     53 % 0 mm
21:25 -6.7 °C -9.9 °C 34327.3 hPa Calm   5.1 km/h 69 % 0 mm
21:26 -4.6 °C -10.2 °C 34256.2 hPa SW 6 km/h 6 km/h 53 % 0 mm
21:31 -4.6 °C -10.2 °C 34256.2 hPa Calm     53 % 0 mm
21:35 -6.8 °C -9.8 °C 34327.3 hPa Calm   5.1 km/h 71 % 0 mm
21:36 -4.7 °C -10.3 °C 34293.4 hPa West 3.1 km/h   53 % 0 mm
21:41 -4.7 °C -10.3 °C 34293.4 hPa East 4.2 km/h   53 % 0 mm
21:45 -6.9 °C -10.1 °C 34327.3 hPa Calm     70 % 0 mm
21:46 -4.8 °C -10.4 °C 34293.4 hPa NE 3.1 km/h   53 % 0 mm
21:51 -4.9 °C -10.5 °C 34293.4 hPa NE 4.2 km/h 4.2 km/h 53 % 0 mm
21:55 -7 °C -10 °C 34293.4 hPa Calm     71 % 0 mm
21:56 -4.9 °C -10.5 °C 34293.4 hPa NNE 3.1 km/h 3.1 km/h 53 % 0 mm
22:01 -4.9 °C -10.6 °C 34293.4 hPa NNE 6 km/h 6 km/h 53 % 0 mm
22:05 -7 °C -10 °C 34327.3 hPa SW 2.6 km/h 2.6 km/h 71 % 0 mm
22:06 -4.9 °C -10.6 °C 34327.3 hPa Calm     53 % 0 mm
22:11 -5 °C -10.8 °C 34327.3 hPa SE 6 km/h 6 km/h 52 % 0 mm
22:15 -7.1 °C -10.1 °C 34327.3 hPa SW 2.6 km/h 5.1 km/h 71 % 0 mm
22:16 -5.1 °C -10.7 °C 34327.3 hPa SW 3.7 km/h   53 % 0 mm
22:21 -5.1 °C -10.7 °C 34327.3 hPa WSW 3.1 km/h   53 % 0 mm
22:25 -7.1 °C -9.9 °C 34361.1 hPa Calm   2.6 km/h 72 % 0 mm
22:26 -5.1 °C -10.7 °C 34327.3 hPa Calm     53 % 0 mm
22:31 -5.2 °C -10.8 °C 34327.3 hPa NW 3.1 km/h 3.1 km/h 53 % 0 mm
22:35 -7.2 °C -10.1 °C 34327.3 hPa Calm     72 % 0 mm
22:36 -5.2 °C -10.6 °C 34327.3 hPa North 3.1 km/h 3.1 km/h 54 % 0 mm
22:41 -5.2 °C -10.4 °C 34327.3 hPa Calm     55 % 0 mm
22:45 -7.2 °C -9.9 °C 34327.3 hPa SW 2.6 km/h 2.6 km/h 73 % 0 mm
22:46 -5.2 °C -10.3 °C 34327.3 hPa WSW 3.7 km/h 3.7 km/h 56 % 0 mm
22:51 -5.2 °C -10.3 °C 34327.3 hPa WSW 6 km/h 6 km/h 56 % 0 mm
22:55 -7.2 °C -9.9 °C 34327.3 hPa Calm     73 % 0 mm
22:56 -5.3 °C -10.2 °C 34327.3 hPa WSW 5.1 km/h 5.1 km/h 57 % 0 mm
23:01 -5.3 °C -10.2 °C 34327.3 hPa WSW 6 km/h 6 km/h 57 % 0 mm
23:05 -7.2 °C -9.9 °C 34327.3 hPa Calm     73 % 0 mm
23:06 -5.3 °C -10.2 °C 34327.3 hPa WNW 3.1 km/h 3.1 km/h 58 % 0 mm
23:11 -5.4 °C -10.1 °C 34327.3 hPa West 3.1 km/h   59 % 0 mm
23:15 -7.2 °C -9.9 °C 34327.3 hPa Calm     73 % 0 mm
23:16 -5.4 °C -10.1 °C 34327.3 hPa SW 3.1 km/h 3.1 km/h 59 % 0 mm
23:21 -5.5 °C -10.1 °C 34327.3 hPa Calm     60 % 0 mm
23:25 -7.2 °C -9.8 °C 34327.3 hPa SW 2.6 km/h 5.1 km/h 74 % 0 mm
23:26 -5.5 °C -10.1 °C 34327.3 hPa WSW 6 km/h 6 km/h 60 % 0 mm
23:31 -5.5 °C -10.1 °C 34327.3 hPa West 8 km/h 8 km/h 60 % 0 mm
23:35 -7.3 °C -9.8 °C 34327.3 hPa Calm   5.1 km/h 75 % 0 mm
23:36 -5.5 °C -9.9 °C 34327.3 hPa WSW 3.7 km/h 3.7 km/h 61 % 0 mm
23:41 -5.6 °C -9.9 °C 34327.3 hPa West 3.1 km/h   61 % 0 mm
23:45 -7.3 °C -9.8 °C 34327.3 hPa Calm   2.6 km/h 75 % 0 mm
23:46 -5.6 °C -9.8 °C 34327.3 hPa Calm     62 % 0 mm
23:51 -5.6 °C -9.8 °C 34327.3 hPa Calm     62 % 0 mm
23:55 -7.3 °C -9.7 °C 34327.3 hPa Calm   2.6 km/h 76 % 0 mm
23:56 -5.7 °C -9.8 °C 34327.3 hPa Calm     63 % 0 mm
Meteo Sesrovires
Elogis d' Weather Underground - 2 mb

Guio original per  Jim McMurry - jmcmurry@mwt.net Adaptat per a la plantilla per  Wim van der Kuil - Leuven-Template.eu

Trobareu la nostra informacio del temps tambe a:

Weather Underground

AWEKAS